No particular awareness of the weather is required.    There are no Weather-warnings


Meteo18 Weather Cam more information Meteo18 Weather Cam


Thunder radar more information blitzortung!


Rain radar more information rain snow radar


Visit our other weather sites:

Template documentation
and downloads

And another site



Weather Underground History page Text

Daily Summary for April 25, 2017 Units:  English    Metric   Both
« Previous Day
Next Day »
Daily Weekly Monthly Yearly Custom
  High: Low: Average:
Temperature: 51.8 °F 37.4 °F 44.8 °F
Dew Point: 45.3 °F 35.6 °F 39.4 °F
Humidity: 93 % 58 % 82 %
Wind Speed: 17 mph 0 mph 4 mph
Wind Gust: 21 mph - -
Wind:- - SSW
Pressure: 29.9 in 29.8 in -
Precipitation: 0.2 in    
Historical Graphs
 
 
Tabular Data for April 25, 2017
Time Temperature Dew Point Pressure Wind Wind Speed Wind Gust Humidity Rainfall Rate (Hourly)
00:02 51.4 °F 37.2 °F 29.9 in NW 1 mph 3 mph 58 % 0 in
00:12 51.1 °F 37.2 °F 29.9 in NW 3 mph 3 mph 59 % 0 in
00:17 51.1 °F 37.2 °F 29.9 in NW 2 mph 3 mph 59 % 0 in
00:22 51.3 °F 37 °F 29.9 in NW 1 mph 3 mph 58 % 0 in
00:32 51.1 °F 36.9 °F 29.9 in NW 2 mph 3 mph 58 % 0 in
00:37 51.1 °F 36.9 °F 29.9 in NW 2 mph 3 mph 58 % 0 in
00:42 50.9 °F 37 °F 29.9 in Calm   4 mph 59 % 0 in
00:47 50.7 °F 36.9 °F 29.9 in NNW 3 mph 4 mph 59 % 0 in
00:52 50.5 °F 36.7 °F 29.9 in NW 2 mph 3 mph 59 % 0 in
00:57 50.5 °F 37.2 °F 29.9 in NW 2 mph 3 mph 60 % 0 in
01:02 50.4 °F 37 °F 29.9 in NW 1 mph 3 mph 60 % 0 in
01:07 50.2 °F 36.9 °F 29.9 in NW 1 mph 4 mph 60 % 0 in
01:12 50.2 °F 37.2 °F 29.9 in NW 3 mph 4 mph 61 % 0 in
01:17 49.8 °F 36.9 °F 29.9 in NW 2 mph 4 mph 61 % 0 in
01:22 49.6 °F 36.7 °F 29.9 in NNW 3 mph 4 mph 61 % 0 in
01:32 49.3 °F 37.2 °F 29.9 in NNW 4 mph 4 mph 63 % 0 in
01:42 48.4 °F 37.6 °F 29.9 in NNW 2 mph 5 mph 66 % 0 in
01:47 48.4 °F 37.6 °F 29.9 in NNW 3 mph 5 mph 66 % 0 in
01:52 48.4 °F 37.9 °F 29.9 in North 3 mph 5 mph 67 % 0 in
01:57 48 °F 37.6 °F 29.9 in NW 2 mph 6 mph 67 % 0 in
02:02 48.4 °F 38.3 °F 29.9 in NW 3 mph 6 mph 68 % 0 in
02:07 48.4 °F 37.9 °F 29.9 in NW 3 mph 5 mph 67 % 0 in
02:12 48.4 °F 38.3 °F 29.9 in NW 3 mph 5 mph 68 % 0 in
02:17 48.4 °F 38.3 °F 29.9 in NNW 1 mph 5 mph 68 % 0 in
02:22 47.7 °F 37.9 °F 29.9 in NNE 2 mph 5 mph 69 % 0 in
02:27 47.7 °F 38.3 °F 29.9 in NNW 2 mph 5 mph 70 % 0 in
02:32 47.8 °F 38.5 °F 29.9 in NNW 1 mph 5 mph 70 % 0 in
02:37 47.7 °F 38.3 °F 29.9 in NNW 3 mph 4 mph 70 % 0 in
02:42 47.5 °F 38.1 °F 29.9 in NW 2 mph 4 mph 70 % 0 in
02:47 47.3 °F 38.3 °F 29.9 in NW 2 mph 4 mph 71 % 0 in
02:52 47.1 °F 38.5 °F 29.9 in NW 1 mph 4 mph 72 % 0 in
02:57 47.1 °F 38.5 °F 29.9 in Calm   3 mph 72 % 0 in
03:02 46.9 °F 38.3 °F 29.9 in NW 2 mph 3 mph 72 % 0 in
03:07 46.9 °F 38.7 °F 29.9 in North 1 mph 3 mph 73 % 0 in
03:12 46.8 °F 38.5 °F 29.9 in NW 1 mph 3 mph 73 % 0 in
03:17 46.8 °F 38.5 °F 29.9 in NNW 2 mph 4 mph 73 % 0 in
03:22 46.8 °F 38.8 °F 29.9 in North 3 mph 4 mph 74 % 0 in
03:32 46.6 °F 38.7 °F 29.9 in WNW 1 mph 4 mph 74 % 0 in
03:37 46.2 °F 38.5 °F 29.9 in WNW 2 mph 5 mph 74 % 0 in
03:42 46 °F 38.5 °F 29.9 in NW 1 mph 5 mph 75 % 0 in
03:47 45.7 °F 38.3 °F 29.9 in WNW 3 mph 4 mph 75 % 0 in
03:52 45.7 °F 38.3 °F 29.9 in NW 3 mph 4 mph 75 % 0 in
04:02 45.9 °F 38.7 °F 29.9 in NNW 1 mph 4 mph 76 % 0 in
04:12 45.7 °F 38.5 °F 29.9 in WNW 1 mph 5 mph 76 % 0 in
04:17 45.7 °F 38.5 °F 29.9 in NW 2 mph 4 mph 76 % 0 in
04:22 45.5 °F 38.3 °F 29.9 in WNW 1 mph 4 mph 76 % 0 in
04:32 45.1 °F 38.3 °F 29.9 in NW 2 mph 2 mph 77 % 0 in
04:42 45 °F 38.1 °F 29.9 in NNW 1 mph 3 mph 77 % 0 in
04:47 44.8 °F 38.3 °F 29.9 in NNW 1 mph 2 mph 78 % 0 in
04:57 44.8 °F 38.3 °F 29.9 in NW 1 mph 2 mph 78 % 0 in
05:02 45 °F 38.5 °F 29.9 in NW 1 mph 2 mph 78 % 0 in
05:12 44.8 °F 38.3 °F 29.9 in NW 2 mph 3 mph 78 % 0 in
05:17 44.8 °F 38.3 °F 29.9 in NNW 2 mph 3 mph 78 % 0 in
05:22 44.8 °F 38.3 °F 29.9 in NW 1 mph 3 mph 78 % 0 in
05:32 44.6 °F 38.5 °F 29.9 in NW 1 mph 4 mph 79 % 0 in
05:42 44.6 °F 38.5 °F 29.9 in NNW 1 mph 4 mph 79 % 0 in
05:47 44.4 °F 38.3 °F 29.9 in NW 1 mph 3 mph 79 % 0 in
05:52 44.6 °F 38.5 °F 29.9 in NW 1 mph 3 mph 79 % 0 in
06:02 44.6 °F 38.5 °F 29.9 in Calm   4 mph 79 % 0 in
06:12 44.4 °F 38.3 °F 29.9 in Calm   3 mph 79 % 0 in
06:17 44.2 °F 38.1 °F 29.9 in Calm   2 mph 79 % 0 in
06:22 43.9 °F 37.8 °F 29.9 in Calm   2 mph 79 % 0 in
06:32 43.5 °F 38.1 °F 29.9 in Calm   1 mph 81 % 0 in
06:42 44.1 °F 38.3 °F 29.9 in NW 2 mph 3 mph 80 % 0 in
06:52 44.1 °F 38.3 °F 29.9 in NW 2 mph 4 mph 80 % 0 in
07:02 44.1 °F 38.3 °F 29.9 in NW 1 mph 4 mph 80 % 0 in
07:12 44.4 °F 38.7 °F 29.9 in Calm   4 mph 80 % 0 in
07:17 44.8 °F 39 °F 29.9 in NW 2 mph 3 mph 80 % 0 in
07:22 45 °F 38.8 °F 29.9 in NW 2 mph 3 mph 79 % 0 in
07:32 44.8 °F 38.7 °F 29.9 in NW 2 mph 4 mph 79 % 0 in
07:42 45.3 °F 39.2 °F 29.9 in NW 2 mph 4 mph 79 % 0 in
07:47 45.7 °F 39.2 °F 29.9 in NW 1 mph 3 mph 78 % 0 in
07:52 46 °F 39.6 °F 29.9 in NW 1 mph 3 mph 78 % 0 in
07:57 46.4 °F 39.9 °F 29.9 in WNW 1 mph 4 mph 78 % 0 in
08:02 46.8 °F 40.3 °F 29.9 in Calm   4 mph 78 % 0 in
08:07 46.9 °F 40.5 °F 29.9 in Calm   3 mph 78 % 0 in
08:12 47.1 °F 40.6 °F 29.9 in Calm   3 mph 78 % 0 in
08:17 47.1 °F 40.6 °F 29.9 in Calm   2 mph 78 % 0 in
08:22 47.5 °F 41.4 °F 29.9 in Calm   2 mph 79 % 0 in
08:27 47.8 °F 41.7 °F 29.9 in North 2 mph 3 mph 79 % 0 in
08:32 48.4 °F 42.4 °F 29.9 in North 6 mph 6 mph 80 % 0 in
08:37 48.9 °F 43.3 °F 29.9 in West 1 mph 8 mph 81 % 0 in
08:42 49.5 °F 43.5 °F 29.9 in North 3 mph 8 mph 80 % 0 in
08:47 49.8 °F 43.9 °F 29.9 in North 1 mph 8 mph 80 % 0 in
08:52 50.4 °F 44.1 °F 29.9 in NNE 7 mph 8 mph 79 % 0 in
09:02 50.5 °F 44.2 °F 29.9 in NNE 2 mph 10 mph 79 % 0 in
09:07 50.4 °F 44.1 °F 29.9 in North 2 mph 10 mph 79 % 0 in
09:12 50.4 °F 44.1 °F 29.9 in NW 5 mph 10 mph 79 % 0 in
09:17 50.4 °F 44.1 °F 29.9 in NE 2 mph 9 mph 79 % 0 in
09:22 50.2 °F 43.9 °F 29.9 in North 5 mph 9 mph 79 % 0 in
09:32 50.4 °F 44.4 °F 29.9 in NNE 3 mph 9 mph 80 % 0 in
09:42 50.9 °F 44.6 °F 29.9 in North 4 mph 8 mph 79 % 0 in
09:47 50.9 °F 44.6 °F 29.9 in NW 2 mph 10 mph 79 % 0 in
09:52 51.3 °F 45 °F 29.9 in ENE 4 mph 10 mph 79 % 0 in
09:57 51.4 °F 45.1 °F 29.9 in WNW 1 mph 6 mph 79 % 0 in
10:02 51.8 °F 45.1 °F 29.9 in NE 8 mph 8 mph 78 % 0 in
10:12 51.1 °F 44.4 °F 29.9 in NE 3 mph 10 mph 78 % 0 in
10:17 50.9 °F 44.2 °F 29.9 in NNW 6 mph 10 mph 78 % 0 in
10:22 50.7 °F 44.4 °F 29.9 in NNE 5 mph 10 mph 79 % 0 in
10:32 50.5 °F 44.2 °F 29.9 in NNW 2 mph 9 mph 79 % 0 in
10:37 50.5 °F 44.2 °F 29.9 in North 5 mph 8 mph 79 % 0 in
10:42 50.7 °F 44.8 °F 29.9 in North 4 mph 8 mph 80 % 0 in
10:52 50.7 °F 44.8 °F 29.9 in ENE 3 mph 8 mph 80 % 0 in
10:57 51.3 °F 45.3 °F 29.9 in North 4 mph 10 mph 80 % 0 in
11:06 51.6 °F 45.3 °F 29.9 in NNW 1 mph 10 mph 79 % 0 in
11:12 51.1 °F 44.1 °F 29.9 in North 7 mph 8 mph 77 % 0 in
11:17 50.7 °F 44.4 °F 29.9 in NNE 6 mph 14 mph 79 % 0 in
11:22 50.5 °F 44.2 °F 29.9 in NNE 9 mph 14 mph 79 % 0 in
11:27 50.4 °F 44.4 °F 29.9 in North 8 mph 14 mph 80 % 0 in
11:32 50 °F 44.4 °F 29.9 in NE 2 mph 14 mph 81 % 0 in
11:37 49.6 °F 43.7 °F 29.9 in NE 1 mph 12 mph 80 % 0 in
11:42 49.3 °F 43.7 °F 29.9 in North 5 mph 12 mph 81 % 0 in
11:47 49.3 °F 44.1 °F 29.9 in NNE 6 mph 12 mph 82 % 0 in
11:52 49.3 °F 44.1 °F 29.9 in NE 5 mph 12 mph 82 % 0 in
11:57 49.5 °F 44.6 °F 29.9 in NW 4 mph 12 mph 83 % 0 in
12:02 49.3 °F 44.1 °F 29.9 in NNE 7 mph 12 mph 82 % 0 in
12:07 49.3 °F 44.1 °F 29.9 in NW 5 mph 12 mph 82 % 0 in
12:12 49.3 °F 44.1 °F 29.9 in NNW 4 mph 12 mph 82 % 0 in
12:17 49.3 °F 44.1 °F 29.9 in North 8 mph 12 mph 82 % 0 in
12:22 49.3 °F 44.1 °F 29.9 in North 6 mph 12 mph 82 % 0 in
12:32 49.5 °F 43.9 °F 29.9 in NNW 5 mph 12 mph 81 % 0 in
12:42 49.3 °F 44.1 °F 29.9 in NNW 4 mph 12 mph 82 % 0 in
12:52 48.9 °F 44.2 °F 29.9 in North 3 mph 12 mph 84 % 0 in
12:57 48.6 °F 43.9 °F 29.9 in North 6 mph 12 mph 84 % 0 in
13:02 48.4 °F 43.7 °F 29.9 in NNW 8 mph 12 mph 84 % 0 in
13:12 47.8 °F 43.5 °F 29.9 in NNW 6 mph 14 mph 85 % 0 in
13:17 48 °F 44.1 °F 29.9 in NNW 4 mph 14 mph 86 % 0 in
13:22 48 °F 43.7 °F 29.9 in NW 2 mph 12 mph 85 % 0 in
13:27 48 °F 43.7 °F 29.9 in NNE 9 mph 14 mph 85 % 0 in
13:32 47.8 °F 43.5 °F 29.9 in NNW 11 mph 14 mph 85 % 0 in
13:37 47.3 °F 43 °F 29.9 in North 12 mph 15 mph 85 % 0 in
13:42 46.8 °F 42.4 °F 29.9 in North 10 mph 15 mph 85 % 0 in
13:47 46.6 °F 42.3 °F 29.9 in NNW 8 mph 16 mph 85 % 0 in
13:52 46.2 °F 41.9 °F 29.9 in NNW 10 mph 16 mph 85 % 0 in
13:57 45.9 °F 41.4 °F 29.9 in NNW 13 mph 17 mph 84 % 0.01 in
14:02 45.9 °F 41.4 °F 29.9 in NNW 5 mph 17 mph 84 % 0.01 in
14:12 45.3 °F 40.8 °F 29.9 in Calm   17 mph 84 % 0.01 in
14:17 45.3 °F 40.8 °F 29.9 in NNE 8 mph 16 mph 84 % 0.01 in
14:22 45.1 °F 40.6 °F 29.9 in NNW 6 mph 16 mph 84 % 0.01 in
14:32 44.8 °F 39.9 °F 29.9 in NNE 7 mph 16 mph 83 % 0.01 in
14:37 44.6 °F 40.1 °F 29.9 in NE 7 mph 19 mph 84 % 0.01 in
14:42 44.4 °F 40.3 °F 29.9 in NE 10 mph 19 mph 85 % 0.01 in
14:47 44.2 °F 40.1 °F 29.9 in NNW 7 mph 19 mph 85 % 0.01 in
14:52 44.1 °F 39.9 °F 29.9 in NNE 12 mph 16 mph 85 % 0.01 in
14:57 44.1 °F 40.1 °F 29.9 in NNW 7 mph 13 mph 86 % 0 in
15:02 44.1 °F 40.5 °F 29.9 in NNW 9 mph 13 mph 87 % 0 in
15:12 44.1 °F 40.8 °F 29.9 in North 9 mph 13 mph 88 % 0 in
15:17 44.1 °F 40.8 °F 29.8 in NNW 3 mph 13 mph 88 % 0.01 in
15:22 44.1 °F 40.8 °F 29.8 in NE 13 mph 15 mph 88 % 0.01 in
15:32 44.1 °F 40.5 °F 29.8 in NW 13 mph 19 mph 87 % 0.01 in
15:42 43.9 °F 40.3 °F 29.8 in North 5 mph 18 mph 87 % 0.02 in
15:47 43.9 °F 40.3 °F 29.8 in NNE 2 mph 16 mph 87 % 0.02 in
15:52 43.5 °F 39.6 °F 29.8 in North 17 mph 17 mph 86 % 0.02 in
15:57 43.3 °F 39.7 °F 29.8 in NNE 10 mph 19 mph 87 % 0.02 in
16:02 43.3 °F 40.1 °F 29.8 in NW 2 mph 19 mph 88 % 0.02 in
16:12 42.8 °F 39.2 °F 29.8 in NNW 8 mph 19 mph 87 % 0.02 in
16:17 42.4 °F 39.2 °F 29.8 in NNE 4 mph 17 mph 88 % 0.02 in
16:22 42.4 °F 39.4 °F 29.8 in NE 10 mph 17 mph 89 % 0.02 in
16:32 42.1 °F 38.8 °F 29.8 in NNW 7 mph 15 mph 88 % 0.02 in
16:37 42.1 °F 39 °F 29.8 in North 8 mph 21 mph 89 % 0.01 in
16:42 42.1 °F 39 °F 29.8 in NNE 2 mph 21 mph 89 % 0.01 in
16:52 41.9 °F 39.2 °F 29.8 in North 12 mph 14 mph 90 % 0.01 in
16:57 41.9 °F 39.2 °F 29.8 in NNE 4 mph 16 mph 90 % 0.02 in
17:02 41.7 °F 39 °F 29.8 in NNE 3 mph 16 mph 90 % 0.02 in
17:07 41.5 °F 38.8 °F 29.8 in NNE 10 mph 16 mph 90 % 0.01 in
17:12 41.5 °F 38.8 °F 29.8 in NNW 7 mph 16 mph 90 % 0.01 in
17:22 41.5 °F 39.2 °F 29.8 in NNE 6 mph 16 mph 91 % 0.01 in
17:32 41.4 °F 38.7 °F 29.8 in NNW 5 mph 16 mph 90 % 0.01 in
17:37 41.4 °F 38.7 °F 29.8 in NNW 4 mph 14 mph 90 % 0.02 in
17:42 41.2 °F 38.5 °F 29.8 in North 3 mph 14 mph 90 % 0.02 in
17:47 41.2 °F 38.8 °F 29.8 in North 8 mph 13 mph 91 % 0.02 in
17:52 41.2 °F 38.8 °F 29.8 in NNE 5 mph 12 mph 91 % 0.02 in
17:57 41.2 °F 38.8 °F 29.8 in NNE 5 mph 14 mph 91 % 0.03 in
18:02 41.2 °F 39 °F 29.8 in North 4 mph 14 mph 92 % 0.03 in
18:12 41.4 °F 39.2 °F 29.8 in ENE 4 mph 14 mph 92 % 0.03 in
18:17 41.2 °F 39 °F 29.8 in North 6 mph 11 mph 92 % 0.04 in
18:22 40.8 °F 38.5 °F 29.8 in NE 13 mph 13 mph 91 % 0.04 in
18:32 40.6 °F 38.3 °F 29.8 in NE 12 mph 16 mph 91 % 0.05 in
18:37 40.6 °F 38.3 °F 29.8 in ENE 4 mph 16 mph 91 % 0.04 in
18:42 40.6 °F 38.3 °F 29.8 in NNE 5 mph 16 mph 91 % 0.04 in
18:47 40.5 °F 38.1 °F 29.8 in NNE 6 mph 16 mph 91 % 0.04 in
18:52 40.5 °F 38.1 °F 29.8 in NNW 8 mph 16 mph 91 % 0.04 in
18:57 40.5 °F 38.1 °F 29.8 in NW 3 mph 14 mph 91 % 0.03 in
19:02 40.5 °F 38.3 °F 29.8 in NNE 7 mph 14 mph 92 % 0.03 in
19:07 40.3 °F 37.9 °F 29.8 in NNW 7 mph 12 mph 91 % 0.04 in
19:12 40.3 °F 38.1 °F 29.8 in NNW 7 mph 12 mph 92 % 0.04 in
19:22 39.7 °F 37.4 °F 29.8 in NNW 8 mph 12 mph 91 % 0.04 in
19:27 39.7 °F 37.4 °F 29.8 in NE 6 mph 17 mph 91 % 0.04 in
19:32 39.6 °F 37.2 °F 29.8 in NNW 6 mph 17 mph 91 % 0.04 in
19:37 39.4 °F 37 °F 29.8 in NE 5 mph 16 mph 91 % 0.04 in
19:42 39.4 °F 37 °F 29.8 in NNW 7 mph 16 mph 91 % 0.04 in
19:52 39.2 °F 37 °F 29.8 in NE 8 mph 15 mph 92 % 0.05 in
19:57 38.8 °F 36.5 °F 29.8 in ENE 5 mph 18 mph 91 % 0.06 in
20:02 38.7 °F 36.3 °F 29.8 in NE 8 mph 18 mph 91 % 0.06 in
20:12 38.5 °F 36.1 °F 29.8 in ENE 2 mph 18 mph 91 % 0.05 in
20:17 38.3 °F 36 °F 29.8 in NNW 6 mph 19 mph 91 % 0.04 in
20:27 38.1 °F 35.8 °F 29.8 in NE 3 mph 15 mph 91 % 0.04 in
20:32 38.1 °F 36 °F 29.8 in NNW 7 mph 15 mph 92 % 0.04 in
20:42 37.9 °F 35.8 °F 29.8 in NE 5 mph 15 mph 92 % 0.02 in
20:47 37.9 °F 35.8 °F 29.8 in NNW 4 mph 14 mph 92 % 0.02 in
20:52 37.9 °F 35.8 °F 29.8 in NE 3 mph 14 mph 92 % 0.02 in
20:57 37.8 °F 35.6 °F 29.9 in NE 5 mph 12 mph 92 % 0.02 in
21:02 37.8 °F 35.6 °F 29.9 in NE 3 mph 12 mph 92 % 0.02 in
21:12 37.8 °F 36 °F 29.9 in NW 4 mph 12 mph 93 % 0.02 in
21:17 37.8 °F 35.6 °F 29.9 in North 5 mph 11 mph 92 % 0.03 in
21:22 37.8 °F 35.6 °F 29.9 in NE 5 mph 12 mph 92 % 0.03 in
21:32 37.8 °F 35.6 °F 29.9 in NNE 4 mph 12 mph 92 % 0.02 in
21:37 37.8 °F 36 °F 29.9 in NE 9 mph 9 mph 93 % 0.02 in
21:42 37.8 °F 35.6 °F 29.9 in NNE 5 mph 8 mph 92 % 0.02 in
21:47 37.8 °F 35.6 °F 29.9 in NNE 6 mph 12 mph 92 % 0.02 in
21:52 37.8 °F 35.6 °F 29.9 in NE 3 mph 12 mph 92 % 0.02 in
22:02 37.6 °F 35.8 °F 29.9 in NE 3 mph 10 mph 93 % 0.02 in
22:12 37.6 °F 35.8 °F 29.9 in ENE 8 mph 10 mph 93 % 0.02 in
22:17 37.6 °F 35.8 °F 29.9 in NE 4 mph 10 mph 93 % 0.01 in
22:22 37.6 °F 35.8 °F 29.9 in NE 4 mph 10 mph 93 % 0.01 in
22:27 37.6 °F 35.8 °F 29.9 in ENE 3 mph 9 mph 93 % 0.01 in
22:32 37.6 °F 35.8 °F 29.9 in ENE 4 mph 9 mph 93 % 0.01 in
22:37 37.6 °F 35.8 °F 29.9 in ENE 2 mph 7 mph 93 % 0.01 in
22:42 37.6 °F 35.8 °F 29.9 in East 4 mph 7 mph 93 % 0.01 in
22:52 37.6 °F 35.8 °F 29.9 in ENE 1 mph 7 mph 93 % 0.02 in
22:57 37.6 °F 35.8 °F 29.9 in NE 1 mph 6 mph 93 % 0.01 in
23:07 37.4 °F 35.6 °F 29.9 in NNE 3 mph 4 mph 93 % 0.01 in
23:12 37.4 °F 35.6 °F 29.9 in Calm   4 mph 93 % 0.01 in
23:17 37.4 °F 35.6 °F 29.9 in Calm   4 mph 93 % 0.01 in
23:22 37.4 °F 35.6 °F 29.9 in North 1 mph 3 mph 93 % 0.01 in
23:27 37.6 °F 35.8 °F 29.9 in North 2 mph 2 mph 93 % 0.01 in
23:32 37.4 °F 35.6 °F 29.9 in Calm   2 mph 93 % 0.01 in
23:37 37.6 °F 35.8 °F 29.9 in Calm   2 mph 93 % 0.01 in
23:42 37.4 °F 35.6 °F 29.9 in Calm   2 mph 93 % 0.01 in
23:52 37.4 °F 35.6 °F 29.9 in Calm     93 % 0 in
23:57 37.4 °F 35.6 °F 29.9 in Calm     93 % 0 in
Meteo18
Compliments of Weather Underground - 4 mb

Script developed by  Jim McMurry - jmcmurry@mwt.net Adapted for the template by  Wim van der Kuil - Leuven-Template.eu

You find our weather info also at:

European Weather Network

Weather Underground

Equipment we use:

Weather-station
Davis Vue

Weather-program
Meteohub

Weather-server
Raspberry PI 2 B+

Provider
1 and 1

Davis Vue

Meteohub

Raspberry PI 2 B+

1 and 1